Estación Meteorológica Peña el Pijo (Robertgarden) [ 05/25/18 12:49:12 CEST ]

Fecha Hora Presion(HPa) Temp (°C) Humedad % Rocio (°C) Viento ( m/s) Direccion Lluvia 1Hora(mm) Lluvia 24H(mm) LLuvia Total(mm)
2018-Mar-30 01:02:01 1000.700 7.2 64 0.8         182.85
2018-Mar-30 02:01:39 1000.300 6.6 65 0.5         182.85
2018-Mar-30 03:02:28 999.900 6.4 66 0.5         182.85
2018-Mar-30 04:02:10 999.700 6.2 65 0.1         182.85
2018-Mar-30 05:02:07 999.300 5.9 64 -0.4 3.7 NNW     182.85
2018-Mar-30 06:02:16 999.100 5.2 64 -1.0 1.7 WNW     182.85
2018-Mar-30 07:01:38 998.800 4.9 65 -1.1         182.85
2018-Mar-30 08:01:49 998.900 5.3 66 -0.6 1.3 NNW     182.85
2018-Mar-30 09:01:47 999.100 5.8 67 0.1         182.85
2018-Mar-30 10:01:46 999.500 8.4 61 1.3 2.7 NW     182.85
2018-Mar-30 11:01:42 999.300 9.5 56 1.1         182.85
2018-Mar-30 12:01:39 999.500 11.2 51 1.4 3.8 WNW     182.85
2018-Mar-30 13:01:36 999.100 10.9 55 2.2 2.6 WNW     182.85
2018-Mar-30 14:01:59 998.900 9.5 61 2.4 2.1 WNW     182.85
2018-Mar-30 15:01:38 999.000 7.9 66 1.9         182.85
2018-Mar-30 16:01:34 998.400 7.5 68 1.8         182.85
2018-Mar-30 17:01:34 998.400 6.4 67 0.9 0.9 WNW     182.85
2018-Mar-30 18:01:33 998.400 4.5 73 0.1     1.03 1.55 184.40
2018-Mar-30 19:01:37 998.500 4.3 76 0.4     0.51 2.07 184.92
2018-Mar-30 20:01:27 998.500 4.9 72 0.3       2.07 184.92
2018-Mar-30 21:01:37 998.800 3.9 71 -0.9       2.07 184.92
2018-Mar-30 22:01:23 998.800 4.3 71 -0.5       2.07 184.92
2018-Mar-30 23:01:19 999.300 3.4 77 -0.2       2.07 184.92

Temperatura Máxima:11°    Temperatura Mínima:
Presión Máxima:1000.700 Hpa    Presión Mínima:998.400 Hpa


Volver